Syre, Minnesota
Current Conditions -  °F | °C
As of 7:35 PM on Friday 24 Oct 2014 (Local Time) from K3N8 Reporting Station
Clear Clear  
Wind Chill: 59°   Ceiling: Unl
Heat Index: 59°   Visibility: 10mi
Dew Point: 40°   Wind: 9mph
Humidity: 50%   Direction: 310°NW
Pressure: 29.84"   Gusts: NA
Location:  47.2382°N, 96.2513°W
Report Text: K3N8 250035Z AUTO 31008KT 10SM CLR 15/05 A2984 RMK AO2 T01510047
Loading
Personal Weather Stations






























Interactive Weather Map
Tropical Storm Tracking
New forecast layout! Learn more

10-Day Weather Forecast

Advertisements
Track Severe Weather on mobile